Nord Copenhagen — 3FNV7 — position and weather

sailwx.info

Track history (hours):
 
Tides and Currents Weather Stations Pressure Air Temp Water Temp Dewpoint Dewpoint Depression Visibility Wind Speed Wind Dir Waves Ship Positions

Nord Copenhagen

Last reported at 2014-Sep-27 13:05 UTC. Time now 2014-Oct-02 16:44 UTC.
Position N 31°36' E 121°27'.

Length 177 m; draft 5.5 m.

Type: Cargo ship. MMSI: 373334000.

Date/timePositionNaut miles runAvg speedWind from/ knotsBaromVisibWave heightAir tempDewpointWater temp
2014-Sep-27 13:05N 31°36' E 121°27'0 0.0
2014-Sep-27 12:29N 31°36' E 121°27'0 0.0
2014-Sep-27 11:11N 31°36' E 121°27'0 0.0
2014-Sep-27 08:33N 31°36' E 121°27'1 1.5
2014-Sep-27 07:33N 31°35' E 121°28'7 7.0
2014-Sep-27 06:33N 31°31' E 121°35'8 8.2
2014-Sep-27 05:32N 31°30' E 121°26'9 8.7
2014-Sep-27 04:33N 31°35' E 121°18'1413.4
2014-Sep-27 03:32N 31°45' E 121°06'1312.8
2014-Sep-27 02:33N 31°52' E 120°53'7 6.4
2014-Sep-27 01:28N 31°58' E 120°51'0 0.0
2014-Sep-27 00:16N 31°58' E 120°51'0 0.0
2014-Sep-26 23:28N 31°58' E 120°51'0 0.0
2014-Sep-26 22:33N 31°58' E 120°51'0 0.0
2014-Sep-26 21:33N 31°58' E 120°51'0 0.0
2014-Sep-26 20:33N 31°58' E 120°51'0 0.0
2014-Sep-26 19:30N 31°58' E 120°51'0 0.0
2014-Sep-26 18:33N 31°58' E 120°51'0 0.0
2014-Sep-26 17:28N 31°58' E 120°51'0 0.0
2014-Sep-26 16:21N 31°58' E 120°51'0 0.0
2014-Sep-26 15:16N 31°58' E 120°51'0 0.0
2014-Sep-26 14:33N 31°58' E 120°51'0 0.0
2014-Sep-26 13:27N 31°58' E 120°51'0 0.0
2014-Sep-26 12:22N 31°58' E 120°51'0 0.0
2014-Sep-26 11:33N 31°58' E 120°51'0 0.0
2014-Sep-26 10:24N 31°58' E 120°51'0 0.0
2014-Sep-26 09:30N 31°58' E 120°51'0 0.0
2014-Sep-26 08:24N 31°58' E 120°51'0 0.0
2014-Sep-26 07:12N 31°58' E 120°51'0 0.0
2014-Sep-26 06:28N 31°58' E 120°51'0 0.0
2014-Sep-26 05:21N 31°58' E 120°51'0 0.0
2014-Sep-26 04:28N 31°58' E 120°51'0 0.0
2014-Sep-26 03:30N 31°58' E 120°51'0 0.0
2014-Sep-26 02:24N 31°58' E 120°51'0 0.0
2014-Sep-26 01:30N 31°58' E 120°51'0 0.0
2014-Sep-26 00:33N 31°58' E 120°51'0 0.0
2014-Sep-25 23:15N 31°58' E 120°51'0 0.0
2014-Sep-25 22:30N 31°58' E 120°51'0 0.0
2014-Sep-25 21:30N 31°58' E 120°51'0 0.0
2014-Sep-25 20:28N 31°58' E 120°51'0 0.0
2014-Sep-25 19:33N 31°58' E 120°51'0 0.0
2014-Sep-25 18:33N 31°58' E 120°51'0 0.0
2014-Sep-25 17:27N 31°58' E 120°51'0 0.0
2014-Sep-25 16:24N 31°58' E 120°51'0 0.0
2014-Sep-25 15:33N 31°58' E 120°51'0 0.0
2014-Sep-25 14:21N 31°58' E 120°51'0 0.0
2014-Sep-25 13:21N 31°58' E 120°51'0 0.0
2014-Sep-25 12:33N 31°58' E 120°51'0 0.0
2014-Sep-25 11:33N 31°58' E 120°51'0 0.0
2014-Sep-25 10:24N 31°58' E 120°51'0 0.0
2014-Sep-25 09:33N 31°58' E 120°51'0 0.0
2014-Sep-25 08:27N 31°58' E 120°51'0 0.0
2014-Sep-25 07:27N 31°58' E 120°51'0 0.0
2014-Sep-25 06:33N 31°58' E 120°51'0 0.0
2014-Sep-25 05:33N 31°58' E 120°51'0 0.0
2014-Sep-25 04:33N 31°58' E 120°51'0 0.0
2014-Sep-25 03:21N 31°58' E 120°51'0 0.0
2014-Sep-25 01:19N 31°58' E 120°51'3 3.4
2014-Sep-25 00:34N 31°56' E 120°52'8 8.0
2014-Sep-24 23:33N 31°48' E 120°55'8 8.0
2014-Sep-24 22:33N 31°46' E 121°04'9 9.2
2014-Sep-24 21:33N 31°40' E 121°13'10 9.8
2014-Sep-24 20:33N 31°33' E 121°20'1010.2
2014-Sep-24 19:33N 31°26' E 121°30'8 7.9
2014-Sep-24 18:34N 31°22' E 121°37'1110.3
2014-Sep-24 17:31N 31°17' E 121°49'2511.0
2014-Sep-24 15:12N 31°08' E 122°16'  
2014-Sep-19 03:32N 22°52' E 119°54'1111.5
2014-Sep-19 02:32N 22°41' E 119°55'1411.8
2014-Sep-19 01:19N 22°27' E 119°54'  
Track history (hours):
 
Tides and Currents Weather Stations Pressure Air Temp Water Temp Dewpoint Dewpoint Depression Visibility Wind Speed Wind Dir Waves Ship Positions

Nord Copenhagen

Last reported at 2014-Sep-27 13:05 UTC. Time now 2014-Oct-02 16:44 UTC.
Position N 31°36' E 121°27'.

Length 177 m; draft 5.5 m.

Type: Cargo ship. MMSI: 373334000.

Date/timePositionNaut miles runAvg speedWind from/ knotsBaromVisibWave heightAir tempDewpointWater temp
2014-Sep-27 13:05N 31°36' E 121°27'0 0.0
2014-Sep-27 12:29N 31°36' E 121°27'0 0.0
2014-Sep-27 11:11N 31°36' E 121°27'0 0.0
2014-Sep-27 08:33N 31°36' E 121°27'1 1.5
2014-Sep-27 07:33N 31°35' E 121°28'7 7.0
2014-Sep-27 06:33N 31°31' E 121°35'8 8.2
2014-Sep-27 05:32N 31°30' E 121°26'9 8.7
2014-Sep-27 04:33N 31°35' E 121°18'1413.4
2014-Sep-27 03:32N 31°45' E 121°06'1312.8
2014-Sep-27 02:33N 31°52' E 120°53'7 6.4
2014-Sep-27 01:28N 31°58' E 120°51'0 0.0
2014-Sep-27 00:16N 31°58' E 120°51'0 0.0
2014-Sep-26 23:28N 31°58' E 120°51'0 0.0
2014-Sep-26 22:33N 31°58' E 120°51'0 0.0
2014-Sep-26 21:33N 31°58' E 120°51'0 0.0
2014-Sep-26 20:33N 31°58' E 120°51'0 0.0
2014-Sep-26 19:30N 31°58' E 120°51'0 0.0
2014-Sep-26 18:33N 31°58' E 120°51'0 0.0
2014-Sep-26 17:28N 31°58' E 120°51'0 0.0
2014-Sep-26 16:21N 31°58' E 120°51'0 0.0
2014-Sep-26 15:16N 31°58' E 120°51'0 0.0
2014-Sep-26 14:33N 31°58' E 120°51'0 0.0
2014-Sep-26 13:27N 31°58' E 120°51'0 0.0
2014-Sep-26 12:22N 31°58' E 120°51'0 0.0
2014-Sep-26 11:33N 31°58' E 120°51'0 0.0
2014-Sep-26 10:24N 31°58' E 120°51'0 0.0
2014-Sep-26 09:30N 31°58' E 120°51'0 0.0
2014-Sep-26 08:24N 31°58' E 120°51'0 0.0
2014-Sep-26 07:12N 31°58' E 120°51'0 0.0
2014-Sep-26 06:28N 31°58' E 120°51'0 0.0
2014-Sep-26 05:21N 31°58' E 120°51'0 0.0
2014-Sep-26 04:28N 31°58' E 120°51'0 0.0
2014-Sep-26 03:30N 31°58' E 120°51'0 0.0
2014-Sep-26 02:24N 31°58' E 120°51'0 0.0
2014-Sep-26 01:30N 31°58' E 120°51'0 0.0
2014-Sep-26 00:33N 31°58' E 120°51'0 0.0
2014-Sep-25 23:15N 31°58' E 120°51'0 0.0
2014-Sep-25 22:30N 31°58' E 120°51'0 0.0
2014-Sep-25 21:30N 31°58' E 120°51'0 0.0
2014-Sep-25 20:28N 31°58' E 120°51'0 0.0
2014-Sep-25 19:33N 31°58' E 120°51'0 0.0
2014-Sep-25 18:33N 31°58' E 120°51'0 0.0
2014-Sep-25 17:27N 31°58' E 120°51'0 0.0
2014-Sep-25 16:24N 31°58' E 120°51'0 0.0
2014-Sep-25 15:33N 31°58' E 120°51'0 0.0
2014-Sep-25 14:21N 31°58' E 120°51'0 0.0
2014-Sep-25 13:21N 31°58' E 120°51'0 0.0
2014-Sep-25 12:33N 31°58' E 120°51'0 0.0
2014-Sep-25 11:33N 31°58' E 120°51'0 0.0
2014-Sep-25 10:24N 31°58' E 120°51'0 0.0
2014-Sep-25 09:33N 31°58' E 120°51'0 0.0
2014-Sep-25 08:27N 31°58' E 120°51'0 0.0
2014-Sep-25 07:27N 31°58' E 120°51'0 0.0
2014-Sep-25 06:33N 31°58' E 120°51'0 0.0
2014-Sep-25 05:33N 31°58' E 120°51'0 0.0
2014-Sep-25 04:33N 31°58' E 120°51'0 0.0
2014-Sep-25 03:21N 31°58' E 120°51'0 0.0
2014-Sep-25 01:19N 31°58' E 120°51'3 3.4
2014-Sep-25 00:34N 31°56' E 120°52'8 8.0
2014-Sep-24 23:33N 31°48' E 120°55'8 8.0
2014-Sep-24 22:33N 31°46' E 121°04'9 9.2
2014-Sep-24 21:33N 31°40' E 121°13'10 9.8
2014-Sep-24 20:33N 31°33' E 121°20'1010.2
2014-Sep-24 19:33N 31°26' E 121°30'8 7.9
2014-Sep-24 18:34N 31°22' E 121°37'1110.3
2014-Sep-24 17:31N 31°17' E 121°49'2511.0
2014-Sep-24 15:12N 31°08' E 122°16'  
2014-Sep-19 03:32N 22°52' E 119°54'1111.5
2014-Sep-19 02:32N 22°41' E 119°55'1411.8
2014-Sep-19 01:19N 22°27' E 119°54'  

Dump ship's entire track history